sensor_id;sensor_type;location;lat;lon;timestamp;P1;durP1;ratioP1;P2;durP2;ratioP2
3677;SDS011;1855;50.934;6.958;2022-07-06T00:01:56;3.25;;;1.92;;
3677;SDS011;1855;50.934;6.958;2022-07-06T00:04:23;4.05;;;2.33;;
3677;SDS011;1855;50.934;6.958;2022-07-06T00:06:50;2.80;;;2.10;;
3677;SDS011;1855;50.934;6.958;2022-07-06T00:09:17;4.40;;;2.40;;
3677;SDS011;1855;50.934;6.958;2022-07-06T00:11:44;4.20;;;1.83;;
3677;SDS011;1855;50.934;6.958;2022-07-06T00:14:12;2.50;;;1.77;;
3677;SDS011;1855;50.934;6.958;2022-07-06T00:16:40;3.30;;;1.92;;
3677;SDS011;1855;50.934;6.958;2022-07-06T00:19:07;2.90;;;2.13;;
3677;SDS011;1855;50.934;6.958;2022-07-06T00:21:34;3.05;;;2.40;;
3677;SDS011;1855;50.934;6.958;2022-07-06T00:24:02;6.35;;;2.10;;
3677;SDS011;1855;50.934;6.958;2022-07-06T00:26:29;2.30;;;1.90;;
3677;SDS011;1855;50.934;6.958;2022-07-06T00:28:56;3.85;;;2.70;;
3677;SDS011;1855;50.934;6.958;2022-07-06T00:31:23;3.20;;;2.33;;
3677;SDS011;1855;50.934;6.958;2022-07-06T00:33:51;4.70;;;2.67;;
3677;SDS011;1855;50.934;6.958;2022-07-06T00:36:18;3.88;;;2.83;;
3677;SDS011;1855;50.934;6.958;2022-07-06T00:38:46;3.17;;;2.35;;
3677;SDS011;1855;50.934;6.958;2022-07-06T00:41:13;5.13;;;2.50;;
3677;SDS011;1855;50.934;6.958;2022-07-06T00:43:47;3.53;;;2.60;;
3677;SDS011;1855;50.934;6.958;2022-07-06T00:46:14;4.80;;;2.45;;
3677;SDS011;1855;50.934;6.958;2022-07-06T00:48:41;3.28;;;2.42;;
3677;SDS011;1855;50.934;6.958;2022-07-06T00:51:09;2.67;;;2.30;;
3677;SDS011;1855;50.934;6.958;2022-07-06T00:53:37;3.45;;;2.42;;
3677;SDS011;1855;50.934;6.958;2022-07-06T00:56:04;3.28;;;2.70;;
3677;SDS011;1855;50.934;6.958;2022-07-06T00:58:31;3.13;;;2.33;;
3677;SDS011;1855;50.934;6.958;2022-07-06T01:00:59;2.78;;;2.58;;
3677;SDS011;1855;50.934;6.958;2022-07-06T01:03:26;2.75;;;2.30;;
3677;SDS011;1855;50.934;6.958;2022-07-06T01:05:53;3.28;;;2.70;;
3677;SDS011;1855;50.934;6.958;2022-07-06T01:08:22;3.83;;;2.70;;
3677;SDS011;1855;50.934;6.958;2022-07-06T01:10:50;3.17;;;2.40;;
3677;SDS011;1855;50.934;6.958;2022-07-06T01:13:17;3.20;;;2.90;;
3677;SDS011;1855;50.934;6.958;2022-07-06T01:15:44;2.90;;;2.70;;
3677;SDS011;1855;50.934;6.958;2022-07-06T01:18:11;3.63;;;2.67;;
3677;SDS011;1855;50.934;6.958;2022-07-06T01:20:40;3.78;;;3.00;;
3677;SDS011;1855;50.934;6.958;2022-07-06T01:23:07;3.20;;;2.90;;
3677;SDS011;1855;50.934;6.958;2022-07-06T01:25:34;3.20;;;2.78;;
3677;SDS011;1855;50.934;6.958;2022-07-06T01:28:01;3.92;;;2.65;;
3677;SDS011;1855;50.934;6.958;2022-07-06T01:30:28;3.10;;;2.80;;
3677;SDS011;1855;50.934;6.958;2022-07-06T01:32:55;3.33;;;2.80;;
3677;SDS011;1855;50.934;6.958;2022-07-06T01:35:22;3.37;;;3.00;;
3677;SDS011;1855;50.934;6.958;2022-07-06T01:37:52;3.53;;;3.13;;
3677;SDS011;1855;50.934;6.958;2022-07-06T01:40:19;5.22;;;3.30;;
3677;SDS011;1855;50.934;6.958;2022-07-06T01:42:46;3.78;;;2.90;;
3677;SDS011;1855;50.934;6.958;2022-07-06T01:45:13;4.93;;;3.10;;
3677;SDS011;1855;50.934;6.958;2022-07-06T01:47:41;4.35;;;3.53;;
3677;SDS011;1855;50.934;6.958;2022-07-06T01:50:08;3.40;;;2.95;;
3677;SDS011;1855;50.934;6.958;2022-07-06T01:52:35;4.70;;;3.00;;
3677;SDS011;1855;50.934;6.958;2022-07-06T01:55:04;3.85;;;3.00;;
3677;SDS011;1855;50.934;6.958;2022-07-06T01:57:31;3.53;;;2.70;;
3677;SDS011;1855;50.934;6.958;2022-07-06T01:59:59;4.38;;;3.00;;
3677;SDS011;1855;50.934;6.958;2022-07-06T02:02:26;4.32;;;3.20;;
3677;SDS011;1855;50.934;6.958;2022-07-06T02:04:53;3.72;;;3.42;;
3677;SDS011;1855;50.934;6.958;2022-07-06T02:07:20;3.90;;;3.10;;
3677;SDS011;1855;50.934;6.958;2022-07-06T02:09:47;4.97;;;3.10;;
3677;SDS011;1855;50.934;6.958;2022-07-06T02:12:15;3.30;;;3.00;;
3677;SDS011;1855;50.934;6.958;2022-07-06T02:14:42;3.78;;;3.10;;
3677;SDS011;1855;50.934;6.958;2022-07-06T02:17:10;3.33;;;3.03;;
3677;SDS011;1855;50.934;6.958;2022-07-06T02:19:37;4.10;;;2.60;;
3677;SDS011;1855;50.934;6.958;2022-07-06T02:22:04;3.60;;;3.00;;
3677;SDS011;1855;50.934;6.958;2022-07-06T02:24:31;3.10;;;2.80;;
3677;SDS011;1855;50.934;6.958;2022-07-06T02:26:58;3.20;;;2.92;;
3677;SDS011;1855;50.934;6.958;2022-07-06T02:29:26;4.20;;;2.80;;
3677;SDS011;1855;50.934;6.958;2022-07-06T02:31:53;3.50;;;3.20;;
3677;SDS011;1855;50.934;6.958;2022-07-06T02:34:20;4.47;;;3.40;;
3677;SDS011;1855;50.934;6.958;2022-07-06T02:36:48;3.67;;;3.25;;
3677;SDS011;1855;50.934;6.958;2022-07-06T02:39:15;3.33;;;2.80;;
3677;SDS011;1855;50.934;6.958;2022-07-06T02:41:42;3.50;;;3.20;;
3677;SDS011;1855;50.934;6.958;2022-07-06T02:44:09;3.40;;;2.90;;
3677;SDS011;1855;50.934;6.958;2022-07-06T02:46:37;3.60;;;3.05;;
3677;SDS011;1855;50.934;6.958;2022-07-06T02:49:04;3.60;;;3.30;;
3677;SDS011;1855;50.934;6.958;2022-07-06T02:51:32;5.25;;;3.50;;
3677;SDS011;1855;50.934;6.958;2022-07-06T02:53:59;3.70;;;3.30;;
3677;SDS011;1855;50.934;6.958;2022-07-06T02:56:26;3.75;;;3.38;;
3677;SDS011;1855;50.934;6.958;2022-07-06T02:58:54;3.40;;;3.10;;
3677;SDS011;1855;50.934;6.958;2022-07-06T03:01:21;3.53;;;3.22;;
3677;SDS011;1855;50.934;6.958;2022-07-06T03:03:49;4.15;;;3.35;;
3677;SDS011;1855;50.934;6.958;2022-07-06T03:06:16;3.50;;;3.00;;
3677;SDS011;1855;50.934;6.958;2022-07-06T03:08:43;3.70;;;3.30;;
3677;SDS011;1855;50.934;6.958;2022-07-06T03:11:10;3.70;;;3.40;;
3677;SDS011;1855;50.934;6.958;2022-07-06T03:13:37;5.10;;;3.60;;
3677;SDS011;1855;50.934;6.958;2022-07-06T03:16:04;4.57;;;3.10;;
3677;SDS011;1855;50.934;6.958;2022-07-06T03:18:32;4.22;;;3.33;;
3677;SDS011;1855;50.934;6.958;2022-07-06T03:21:00;3.88;;;3.22;;
3677;SDS011;1855;50.934;6.958;2022-07-06T03:23:29;4.53;;;3.40;;
3677;SDS011;1855;50.934;6.958;2022-07-06T03:25:56;3.60;;;3.30;;
3677;SDS011;1855;50.934;6.958;2022-07-06T03:28:23;5.22;;;3.40;;
3677;SDS011;1855;50.934;6.958;2022-07-06T03:30:50;3.53;;;3.22;;
3677;SDS011;1855;50.934;6.958;2022-07-06T03:33:17;3.97;;;2.93;;
3677;SDS011;1855;50.934;6.958;2022-07-06T03:35:44;4.68;;;3.30;;
3677;SDS011;1855;50.934;6.958;2022-07-06T03:38:13;4.60;;;3.08;;
3677;SDS011;1855;50.934;6.958;2022-07-06T03:40:40;3.20;;;2.90;;
3677;SDS011;1855;50.934;6.958;2022-07-06T03:43:07;3.50;;;3.20;;
3677;SDS011;1855;50.934;6.958;2022-07-06T03:45:34;3.70;;;3.30;;
3677;SDS011;1855;50.934;6.958;2022-07-06T03:48:01;4.05;;;3.13;;
3677;SDS011;1855;50.934;6.958;2022-07-06T03:50:28;4.65;;;3.40;;
3677;SDS011;1855;50.934;6.958;2022-07-06T03:52:55;4.40;;;3.30;;
3677;SDS011;1855;50.934;6.958;2022-07-06T03:55:24;3.50;;;3.20;;
3677;SDS011;1855;50.934;6.958;2022-07-06T03:57:51;3.63;;;3.08;;
3677;SDS011;1855;50.934;6.958;2022-07-06T04:00:18;3.95;;;3.03;;
3677;SDS011;1855;50.934;6.958;2022-07-06T04:02:45;3.80;;;3.40;;
3677;SDS011;1855;50.934;6.958;2022-07-06T04:05:12;3.63;;;3.33;;
3677;SDS011;1855;50.934;6.958;2022-07-06T04:07:40;4.72;;;3.35;;
3677;SDS011;1855;50.934;6.958;2022-07-06T04:10:07;4.80;;;3.60;;
3677;SDS011;1855;50.934;6.958;2022-07-06T04:12:40;5.88;;;3.72;;
3677;SDS011;1855;50.934;6.958;2022-07-06T04:15:08;4.50;;;3.53;;
3677;SDS011;1855;50.934;6.958;2022-07-06T04:17:35;4.35;;;3.80;;
3677;SDS011;1855;50.934;6.958;2022-07-06T04:20:17;6.00;;;5.10;;
3677;SDS011;1855;50.934;6.958;2022-07-06T04:22:45;4.00;;;3.20;;
3677;SDS011;1855;50.934;6.958;2022-07-06T04:25:12;4.40;;;3.50;;
3677;SDS011;1855;50.934;6.958;2022-07-06T04:27:40;4.63;;;3.40;;
3677;SDS011;1855;50.934;6.958;2022-07-06T04:30:08;4.10;;;3.40;;
3677;SDS011;1855;50.934;6.958;2022-07-06T04:32:35;5.20;;;3.20;;
3677;SDS011;1855;50.934;6.958;2022-07-06T04:35:03;4.00;;;3.10;;
3677;SDS011;1855;50.934;6.958;2022-07-06T04:37:30;3.80;;;3.38;;
3677;SDS011;1855;50.934;6.958;2022-07-06T04:39:57;6.20;;;3.70;;
3677;SDS011;1855;50.934;6.958;2022-07-06T04:42:24;4.45;;;3.80;;
3677;SDS011;1855;50.934;6.958;2022-07-06T04:44:53;3.90;;;3.50;;
3677;SDS011;1855;50.934;6.958;2022-07-06T04:47:20;6.90;;;3.78;;
3677;SDS011;1855;50.934;6.958;2022-07-06T04:49:47;4.40;;;3.20;;
3677;SDS011;1855;50.934;6.958;2022-07-06T04:52:14;3.92;;;3.60;;
3677;SDS011;1855;50.934;6.958;2022-07-06T04:54:41;4.47;;;3.50;;
3677;SDS011;1855;50.934;6.958;2022-07-06T04:57:08;4.25;;;3.60;;
3677;SDS011;1855;50.934;6.958;2022-07-06T04:59:35;4.57;;;3.63;;
3677;SDS011;1855;50.934;6.958;2022-07-06T05:02:04;4.57;;;3.53;;
3677;SDS011;1855;50.934;6.958;2022-07-06T05:04:31;5.15;;;3.40;;
3677;SDS011;1855;50.934;6.958;2022-07-06T05:06:58;5.93;;;4.03;;
3677;SDS011;1855;50.934;6.958;2022-07-06T05:09:25;5.53;;;4.00;;
3677;SDS011;1855;50.934;6.958;2022-07-06T05:11:52;5.15;;;3.55;;
3677;SDS011;1855;50.934;6.958;2022-07-06T05:14:20;4.90;;;3.72;;
3677;SDS011;1855;50.934;6.958;2022-07-06T05:16:47;7.15;;;3.50;;
3677;SDS011;1855;50.934;6.958;2022-07-06T05:19:15;4.90;;;3.53;;
3677;SDS011;1855;50.934;6.958;2022-07-06T05:21:42;6.03;;;3.60;;
3677;SDS011;1855;50.934;6.958;2022-07-06T05:24:09;5.78;;;3.80;;
3677;SDS011;1855;50.934;6.958;2022-07-06T05:26:36;5.05;;;4.20;;
3677;SDS011;1855;50.934;6.958;2022-07-06T05:29:04;5.90;;;3.40;;
3677;SDS011;1855;50.934;6.958;2022-07-06T05:31:31;6.45;;;3.50;;
3677;SDS011;1855;50.934;6.958;2022-07-06T05:33:58;6.00;;;3.33;;
3677;SDS011;1855;50.934;6.958;2022-07-06T05:36:26;3.83;;;3.00;;
3677;SDS011;1855;50.934;6.958;2022-07-06T05:38:53;4.28;;;3.08;;
3677;SDS011;1855;50.934;6.958;2022-07-06T05:41:21;4.60;;;3.20;;
3677;SDS011;1855;50.934;6.958;2022-07-06T05:43:48;7.43;;;6.65;;
3677;SDS011;1855;50.934;6.958;2022-07-06T05:46:15;5.00;;;4.60;;
3677;SDS011;1855;50.934;6.958;2022-07-06T05:48:42;6.18;;;2.88;;
3677;SDS011;1855;50.934;6.958;2022-07-06T05:51:27;4.63;;;3.00;;
3677;SDS011;1855;50.934;6.958;2022-07-06T05:53:54;2.83;;;2.50;;
3677;SDS011;1855;50.934;6.958;2022-07-06T05:56:22;2.67;;;2.40;;
3677;SDS011;1855;50.934;6.958;2022-07-06T05:58:49;3.45;;;2.00;;
3677;SDS011;1855;50.934;6.958;2022-07-06T06:01:16;4.15;;;2.10;;
3677;SDS011;1855;50.934;6.958;2022-07-06T06:03:43;4.73;;;2.70;;
3677;SDS011;1855;50.934;6.958;2022-07-06T06:06:10;4.57;;;2.80;;
3677;SDS011;1855;50.934;6.958;2022-07-06T06:08:39;4.07;;;2.38;;
3677;SDS011;1855;50.934;6.958;2022-07-06T06:11:06;3.78;;;2.13;;
3677;SDS011;1855;50.934;6.958;2022-07-06T06:13:33;2.78;;;2.15;;
3677;SDS011;1855;50.934;6.958;2022-07-06T06:16:00;3.47;;;1.73;;
3677;SDS011;1855;50.934;6.958;2022-07-06T06:18:27;4.88;;;1.58;;
3677;SDS011;1855;50.934;6.958;2022-07-06T06:20:54;2.70;;;1.40;;
3677;SDS011;1855;50.934;6.958;2022-07-06T06:23:21;3.70;;;1.60;;
3677;SDS011;1855;50.934;6.958;2022-07-06T06:25:50;3.25;;;1.90;;
3677;SDS011;1855;50.934;6.958;2022-07-06T06:28:17;3.30;;;2.97;;
3677;SDS011;1855;50.934;6.958;2022-07-06T06:30:44;2.33;;;2.00;;
3677;SDS011;1855;50.934;6.958;2022-07-06T06:33:12;3.80;;;1.85;;
3677;SDS011;1855;50.934;6.958;2022-07-06T06:35:42;5.47;;;2.10;;
3677;SDS011;1855;50.934;6.958;2022-07-06T06:38:09;3.33;;;2.00;;
3677;SDS011;1855;50.934;6.958;2022-07-06T06:40:36;3.05;;;1.67;;
3677;SDS011;1855;50.934;6.958;2022-07-06T06:43:04;4.65;;;1.90;;
3677;SDS011;1855;50.934;6.958;2022-07-06T06:45:31;3.75;;;2.00;;
3677;SDS011;1855;50.934;6.958;2022-07-06T06:47:59;2.60;;;1.30;;
3677;SDS011;1855;50.934;6.958;2022-07-06T06:50:26;2.90;;;1.58;;
3677;SDS011;1855;50.934;6.958;2022-07-06T06:52:53;5.00;;;1.50;;
3677;SDS011;1855;50.934;6.958;2022-07-06T06:55:20;3.08;;;1.15;;
3677;SDS011;1855;50.934;6.958;2022-07-06T06:57:47;2.80;;;1.30;;
3677;SDS011;1855;50.934;6.958;2022-07-06T07:00:16;2.00;;;1.20;;
3677;SDS011;1855;50.934;6.958;2022-07-06T07:02:44;3.13;;;1.00;;
3677;SDS011;1855;50.934;6.958;2022-07-06T07:05:12;2.42;;;1.02;;
3677;SDS011;1855;50.934;6.958;2022-07-06T07:07:39;2.80;;;1.38;;
3677;SDS011;1855;50.934;6.958;2022-07-06T07:10:06;2.88;;;1.30;;
3677;SDS011;1855;50.934;6.958;2022-07-06T07:12:34;2.72;;;1.40;;
3677;SDS011;1855;50.934;6.958;2022-07-06T07:15:01;2.95;;;1.30;;
3677;SDS011;1855;50.934;6.958;2022-07-06T07:17:29;2.60;;;1.40;;
3677;SDS011;1855;50.934;6.958;2022-07-06T07:19:56;3.03;;;1.10;;
3677;SDS011;1855;50.934;6.958;2022-07-06T07:22:23;1.70;;;1.38;;
3677;SDS011;1855;50.934;6.958;2022-07-06T07:24:51;2.47;;;1.30;;
3677;SDS011;1855;50.934;6.958;2022-07-06T07:27:18;3.50;;;1.50;;
3677;SDS011;1855;50.934;6.958;2022-07-06T07:29:45;2.63;;;1.20;;
3677;SDS011;1855;50.934;6.958;2022-07-06T07:32:12;2.72;;;1.10;;
3677;SDS011;1855;50.934;6.958;2022-07-06T07:34:40;2.20;;;1.00;;
3677;SDS011;1855;50.934;6.958;2022-07-06T07:37:08;2.08;;;1.00;;
3677;SDS011;1855;50.934;6.958;2022-07-06T07:39:35;2.30;;;0.90;;
3677;SDS011;1855;50.934;6.958;2022-07-06T07:42:02;2.93;;;1.00;;
3677;SDS011;1855;50.934;6.958;2022-07-06T07:44:29;3.28;;;1.08;;
3677;SDS011;1855;50.934;6.958;2022-07-06T07:46:56;2.15;;;1.02;;
3677;SDS011;1855;50.934;6.958;2022-07-06T07:49:23;1.90;;;1.10;;
3677;SDS011;1855;50.934;6.958;2022-07-06T07:51:52;1.40;;;0.80;;
3677;SDS011;1855;50.934;6.958;2022-07-06T07:54:19;1.83;;;0.82;;
3677;SDS011;1855;50.934;6.958;2022-07-06T07:56:46;2.30;;;1.00;;
3677;SDS011;1855;50.934;6.958;2022-07-06T07:59:13;3.27;;;0.90;;
3677;SDS011;1855;50.934;6.958;2022-07-06T08:01:40;1.40;;;0.73;;
3677;SDS011;1855;50.934;6.958;2022-07-06T08:04:07;2.80;;;0.70;;
3677;SDS011;1855;50.934;6.958;2022-07-06T08:06:34;1.63;;;0.95;;
3677;SDS011;1855;50.934;6.958;2022-07-06T08:09:03;2.55;;;1.00;;
3677;SDS011;1855;50.934;6.958;2022-07-06T08:11:32;2.50;;;0.70;;
3677;SDS011;1855;50.934;6.958;2022-07-06T08:14:01;2.50;;;0.90;;
3677;SDS011;1855;50.934;6.958;2022-07-06T08:16:29;2.30;;;0.80;;
3677;SDS011;1855;50.934;6.958;2022-07-06T08:18:56;1.50;;;0.80;;
3677;SDS011;1855;50.934;6.958;2022-07-06T08:21:24;2.30;;;0.80;;
3677;SDS011;1855;50.934;6.958;2022-07-06T08:23:51;1.27;;;0.70;;
3677;SDS011;1855;50.934;6.958;2022-07-06T08:26:20;1.70;;;0.60;;
3677;SDS011;1855;50.934;6.958;2022-07-06T08:28:48;1.85;;;0.80;;
3677;SDS011;1855;50.934;6.958;2022-07-06T08:31:15;1.60;;;0.77;;
3677;SDS011;1855;50.934;6.958;2022-07-06T08:33:42;3.10;;;1.03;;
3677;SDS011;1855;50.934;6.958;2022-07-06T08:36:09;2.15;;;1.00;;
3677;SDS011;1855;50.934;6.958;2022-07-06T08:38:37;2.20;;;0.90;;
3677;SDS011;1855;50.934;6.958;2022-07-06T08:41:04;2.22;;;0.90;;
3677;SDS011;1855;50.934;6.958;2022-07-06T08:43:34;1.90;;;0.80;;
3677;SDS011;1855;50.934;6.958;2022-07-06T08:46:02;1.40;;;0.80;;
3677;SDS011;1855;50.934;6.958;2022-07-06T08:48:31;1.88;;;1.00;;
3677;SDS011;1855;50.934;6.958;2022-07-06T08:51:01;2.10;;;1.00;;
3677;SDS011;1855;50.934;6.958;2022-07-06T08:53:29;2.20;;;0.90;;
3677;SDS011;1855;50.934;6.958;2022-07-06T08:55:56;1.73;;;0.80;;
3677;SDS011;1855;50.934;6.958;2022-07-06T08:58:23;2.38;;;1.10;;
3677;SDS011;1855;50.934;6.958;2022-07-06T09:00:52;2.58;;;0.80;;
3677;SDS011;1855;50.934;6.958;2022-07-06T09:03:20;1.88;;;0.90;;
3677;SDS011;1855;50.934;6.958;2022-07-06T09:05:47;3.23;;;0.93;;
3677;SDS011;1855;50.934;6.958;2022-07-06T09:08:14;2.33;;;0.85;;
3677;SDS011;1855;50.934;6.958;2022-07-06T09:10:42;2.80;;;1.50;;
3677;SDS011;1855;50.934;6.958;2022-07-06T09:13:09;3.00;;;1.00;;
3677;SDS011;1855;50.934;6.958;2022-07-06T09:15:36;1.98;;;0.80;;
3677;SDS011;1855;50.934;6.958;2022-07-06T09:18:06;2.40;;;0.90;;
3677;SDS011;1855;50.934;6.958;2022-07-06T09:20:33;2.97;;;0.93;;
3677;SDS011;1855;50.934;6.958;2022-07-06T09:23:01;3.17;;;1.17;;
3677;SDS011;1855;50.934;6.958;2022-07-06T09:25:29;2.20;;;0.90;;
3677;SDS011;1855;50.934;6.958;2022-07-06T09:27:57;2.08;;;0.90;;
3677;SDS011;1855;50.934;6.958;2022-07-06T09:30:25;1.40;;;0.90;;
3677;SDS011;1855;50.934;6.958;2022-07-06T09:32:53;1.50;;;0.85;;
3677;SDS011;1855;50.934;6.958;2022-07-06T09:35:22;2.00;;;0.90;;
3677;SDS011;1855;50.934;6.958;2022-07-06T09:37:59;2.00;;;0.90;;
3677;SDS011;1855;50.934;6.958;2022-07-06T09:40:26;1.70;;;0.60;;
3677;SDS011;1855;50.934;6.958;2022-07-06T09:43:06;2.58;;;0.90;;
3677;SDS011;1855;50.934;6.958;2022-07-06T09:45:33;1.33;;;0.90;;
3677;SDS011;1855;50.934;6.958;2022-07-06T09:48:05;2.60;;;1.00;;
3677;SDS011;1855;50.934;6.958;2022-07-06T09:50:39;1.58;;;0.73;;
3677;SDS011;1855;50.934;6.958;2022-07-06T09:53:06;2.60;;;0.80;;
3677;SDS011;1855;50.934;6.958;2022-07-06T09:55:33;2.70;;;0.70;;
3677;SDS011;1855;50.934;6.958;2022-07-06T09:58:00;1.52;;;0.90;;
3677;SDS011;1855;50.934;6.958;2022-07-06T10:00:28;3.60;;;1.00;;
3677;SDS011;1855;50.934;6.958;2022-07-06T10:02:55;3.60;;;1.30;;
3677;SDS011;1855;50.934;6.958;2022-07-06T10:05:22;2.10;;;0.82;;
3677;SDS011;1855;50.934;6.958;2022-07-06T10:07:56;2.08;;;0.80;;
3677;SDS011;1855;50.934;6.958;2022-07-06T10:10:23;1.80;;;0.80;;
3677;SDS011;1855;50.934;6.958;2022-07-06T10:12:51;2.33;;;0.88;;
3677;SDS011;1855;50.934;6.958;2022-07-06T10:15:20;2.20;;;0.90;;
3677;SDS011;1855;50.934;6.958;2022-07-06T10:17:48;3.40;;;0.80;;
3677;SDS011;1855;50.934;6.958;2022-07-06T10:20:16;2.78;;;0.73;;
3677;SDS011;1855;50.934;6.958;2022-07-06T10:22:44;1.10;;;0.75;;
3677;SDS011;1855;50.934;6.958;2022-07-06T10:25:12;1.40;;;0.60;;
3677;SDS011;1855;50.934;6.958;2022-07-06T10:27:40;1.10;;;0.80;;
3677;SDS011;1855;50.934;6.958;2022-07-06T10:30:08;2.30;;;0.73;;
3677;SDS011;1855;50.934;6.958;2022-07-06T10:32:35;2.60;;;0.80;;
3677;SDS011;1855;50.934;6.958;2022-07-06T10:35:04;2.55;;;0.68;;
3677;SDS011;1855;50.934;6.958;2022-07-06T10:37:31;1.30;;;0.85;;
3677;SDS011;1855;50.934;6.958;2022-07-06T10:39:59;3.00;;;0.95;;
3677;SDS011;1855;50.934;6.958;2022-07-06T10:42:45;2.40;;;0.90;;
3677;SDS011;1855;50.934;6.958;2022-07-06T10:45:16;1.50;;;0.60;;
3677;SDS011;1855;50.934;6.958;2022-07-06T10:47:46;2.92;;;1.10;;
3677;SDS011;1855;50.934;6.958;2022-07-06T10:50:16;2.60;;;0.75;;
3677;SDS011;1855;50.934;6.958;2022-07-06T10:52:48;2.25;;;0.90;;
3677;SDS011;1855;50.934;6.958;2022-07-06T10:55:28;2.60;;;0.70;;
3677;SDS011;1855;50.934;6.958;2022-07-06T10:57:57;2.00;;;0.65;;
3677;SDS011;1855;50.934;6.958;2022-07-06T11:00:25;1.40;;;0.70;;
3677;SDS011;1855;50.934;6.958;2022-07-06T11:02:52;1.50;;;0.60;;
3677;SDS011;1855;50.934;6.958;2022-07-06T11:08:05;1.70;;;0.60;;
3677;SDS011;1855;50.934;6.958;2022-07-06T11:10:45;1.50;;;0.70;;
3677;SDS011;1855;50.934;6.958;2022-07-06T11:13:25;2.30;;;0.80;;
3677;SDS011;1855;50.934;6.958;2022-07-06T11:15:59;1.63;;;0.60;;
3677;SDS011;1855;50.934;6.958;2022-07-06T11:18:28;2.28;;;0.70;;
3677;SDS011;1855;50.934;6.958;2022-07-06T11:23:40;2.50;;;0.90;;
3677;SDS011;1855;50.934;6.958;2022-07-06T11:26:07;1.05;;;0.60;;
3677;SDS011;1855;50.934;6.958;2022-07-06T11:28:36;0.93;;;0.68;;
3677;SDS011;1855;50.934;6.958;2022-07-06T11:31:03;2.13;;;0.60;;
3677;SDS011;1855;50.934;6.958;2022-07-06T11:33:31;1.38;;;0.60;;
3677;SDS011;1855;50.934;6.958;2022-07-06T11:36:11;1.83;;;0.70;;
3677;SDS011;1855;50.934;6.958;2022-07-06T11:38:38;1.80;;;0.90;;
3677;SDS011;1855;50.934;6.958;2022-07-06T11:41:05;1.25;;;0.60;;
3677;SDS011;1855;50.934;6.958;2022-07-06T11:43:32;1.20;;;0.60;;
3677;SDS011;1855;50.934;6.958;2022-07-06T11:46:01;1.55;;;0.70;;
3677;SDS011;1855;50.934;6.958;2022-07-06T11:48:28;3.00;;;0.90;;
3677;SDS011;1855;50.934;6.958;2022-07-06T11:50:59;2.10;;;0.60;;
3677;SDS011;1855;50.934;6.958;2022-07-06T11:53:26;2.83;;;0.80;;
3677;SDS011;1855;50.934;6.958;2022-07-06T11:55:53;2.00;;;0.70;;
3677;SDS011;1855;50.934;6.958;2022-07-06T11:58:22;1.15;;;0.75;;
3677;SDS011;1855;50.934;6.958;2022-07-06T12:01:06;1.38;;;0.80;;
3677;SDS011;1855;50.934;6.958;2022-07-06T12:03:33;1.55;;;0.80;;
3677;SDS011;1855;50.934;6.958;2022-07-06T12:06:01;1.63;;;0.73;;
3677;SDS011;1855;50.934;6.958;2022-07-06T12:08:28;2.25;;;0.80;;
3677;SDS011;1855;50.934;6.958;2022-07-06T12:10:55;1.80;;;0.80;;
3677;SDS011;1855;50.934;6.958;2022-07-06T12:13:22;3.17;;;0.80;;
3677;SDS011;1855;50.934;6.958;2022-07-06T12:15:50;1.80;;;0.60;;
3677;SDS011;1855;50.934;6.958;2022-07-06T12:18:18;3.30;;;1.27;;
3677;SDS011;1855;50.934;6.958;2022-07-06T12:20:45;2.00;;;0.80;;
3677;SDS011;1855;50.934;6.958;2022-07-06T12:23:12;2.17;;;0.73;;
3677;SDS011;1855;50.934;6.958;2022-07-06T12:25:40;1.10;;;0.70;;
3677;SDS011;1855;50.934;6.958;2022-07-06T12:28:07;0.90;;;0.70;;
3677;SDS011;1855;50.934;6.958;2022-07-06T12:30:48;3.40;;;0.90;;
3677;SDS011;1855;50.934;6.958;2022-07-06T12:33:15;1.60;;;0.70;;
3677;SDS011;1855;50.934;6.958;2022-07-06T12:35:45;1.90;;;0.80;;
3677;SDS011;1855;50.934;6.958;2022-07-06T12:38:12;1.55;;;0.80;;
3677;SDS011;1855;50.934;6.958;2022-07-06T12:40:39;1.33;;;0.75;;
3677;SDS011;1855;50.934;6.958;2022-07-06T12:43:06;1.25;;;0.80;;
3677;SDS011;1855;50.934;6.958;2022-07-06T12:45:33;1.80;;;0.90;;
3677;SDS011;1855;50.934;6.958;2022-07-06T12:48:01;2.70;;;0.80;;
3677;SDS011;1855;50.934;6.958;2022-07-06T12:50:32;1.42;;;0.77;;
3677;SDS011;1855;50.934;6.958;2022-07-06T12:53:00;3.10;;;0.90;;
3677;SDS011;1855;50.934;6.958;2022-07-06T12:55:28;1.85;;;0.70;;
3677;SDS011;1855;50.934;6.958;2022-07-06T12:57:56;2.00;;;1.00;;
3677;SDS011;1855;50.934;6.958;2022-07-06T13:00:24;1.52;;;0.80;;
3677;SDS011;1855;50.934;6.958;2022-07-06T13:02:52;1.80;;;0.80;;
3677;SDS011;1855;50.934;6.958;2022-07-06T13:05:24;1.40;;;0.80;;
3677;SDS011;1855;50.934;6.958;2022-07-06T13:07:54;1.33;;;0.90;;
3677;SDS011;1855;50.934;6.958;2022-07-06T13:10:23;1.30;;;0.70;;
3677;SDS011;1855;50.934;6.958;2022-07-06T13:12:50;1.58;;;0.80;;
3677;SDS011;1855;50.934;6.958;2022-07-06T13:15:17;1.98;;;0.80;;
3677;SDS011;1855;50.934;6.958;2022-07-06T13:17:45;2.35;;;0.80;;
3677;SDS011;1855;50.934;6.958;2022-07-06T13:20:12;0.98;;;0.73;;
3677;SDS011;1855;50.934;6.958;2022-07-06T13:22:42;2.03;;;1.17;;
3677;SDS011;1855;50.934;6.958;2022-07-06T13:25:09;2.38;;;1.00;;
3677;SDS011;1855;50.934;6.958;2022-07-06T13:27:39;2.83;;;1.15;;
3677;SDS011;1855;50.934;6.958;2022-07-06T13:30:07;1.70;;;0.90;;
3677;SDS011;1855;50.934;6.958;2022-07-06T13:32:35;1.33;;;0.68;;
3677;SDS011;1855;50.934;6.958;2022-07-06T13:35:02;3.08;;;1.00;;
3677;SDS011;1855;50.934;6.958;2022-07-06T13:37:29;2.10;;;0.80;;
3677;SDS011;1855;50.934;6.958;2022-07-06T13:39:58;1.48;;;0.90;;
3677;SDS011;1855;50.934;6.958;2022-07-06T13:42:25;1.50;;;0.90;;
3677;SDS011;1855;50.934;6.958;2022-07-06T13:44:53;2.65;;;0.70;;
3677;SDS011;1855;50.934;6.958;2022-07-06T13:47:21;1.58;;;0.70;;
3677;SDS011;1855;50.934;6.958;2022-07-06T13:49:48;1.75;;;1.05;;
3677;SDS011;1855;50.934;6.958;2022-07-06T13:52:15;2.60;;;0.90;;
3677;SDS011;1855;50.934;6.958;2022-07-06T13:54:42;2.40;;;0.90;;
3677;SDS011;1855;50.934;6.958;2022-07-06T13:57:09;2.13;;;0.90;;
3677;SDS011;1855;50.934;6.958;2022-07-06T13:59:36;0.93;;;0.70;;
3677;SDS011;1855;50.934;6.958;2022-07-06T14:02:05;1.85;;;0.60;;
3677;SDS011;1855;50.934;6.958;2022-07-06T14:04:32;1.70;;;0.80;;
3677;SDS011;1855;50.934;6.958;2022-07-06T14:06:59;1.57;;;0.70;;
3677;SDS011;1855;50.934;6.958;2022-07-06T14:09:27;1.20;;;0.60;;
3677;SDS011;1855;50.934;6.958;2022-07-06T14:11:54;2.13;;;0.70;;
3677;SDS011;1855;50.934;6.958;2022-07-06T14:14:21;1.30;;;0.60;;
3677;SDS011;1855;50.934;6.958;2022-07-06T14:16:48;1.90;;;0.70;;
3677;SDS011;1855;50.934;6.958;2022-07-06T14:19:17;2.40;;;0.70;;
3677;SDS011;1855;50.934;6.958;2022-07-06T14:21:45;1.77;;;0.50;;
3677;SDS011;1855;50.934;6.958;2022-07-06T14:24:13;0.88;;;0.50;;
3677;SDS011;1855;50.934;6.958;2022-07-06T14:26:40;0.90;;;0.50;;
3677;SDS011;1855;50.934;6.958;2022-07-06T14:29:07;1.60;;;0.50;;
3677;SDS011;1855;50.934;6.958;2022-07-06T14:31:34;2.50;;;0.80;;
3677;SDS011;1855;50.934;6.958;2022-07-06T14:34:01;2.83;;;0.70;;
3677;SDS011;1855;50.934;6.958;2022-07-06T14:36:30;1.90;;;0.82;;
3677;SDS011;1855;50.934;6.958;2022-07-06T14:38:58;1.10;;;0.50;;
3677;SDS011;1855;50.934;6.958;2022-07-06T14:41:25;1.60;;;0.70;;
3677;SDS011;1855;50.934;6.958;2022-07-06T14:43:52;1.42;;;0.60;;
3677;SDS011;1855;50.934;6.958;2022-07-06T14:46:19;2.50;;;0.98;;
3677;SDS011;1855;50.934;6.958;2022-07-06T14:48:47;2.05;;;0.70;;
3677;SDS011;1855;50.934;6.958;2022-07-06T14:51:14;3.83;;;1.10;;
3677;SDS011;1855;50.934;6.958;2022-07-06T14:53:42;1.30;;;0.60;;
3677;SDS011;1855;50.934;6.958;2022-07-06T14:56:09;2.15;;;0.90;;
3677;SDS011;1855;50.934;6.958;2022-07-06T14:58:36;1.83;;;0.70;;
3677;SDS011;1855;50.934;6.958;2022-07-06T15:01:03;2.10;;;0.70;;
3677;SDS011;1855;50.934;6.958;2022-07-06T15:03:31;1.70;;;0.50;;
3677;SDS011;1855;50.934;6.958;2022-07-06T15:05:58;0.98;;;0.70;;
3677;SDS011;1855;50.934;6.958;2022-07-06T15:08:25;1.00;;;0.50;;
3677;SDS011;1855;50.934;6.958;2022-07-06T15:10:54;2.70;;;0.73;;
3677;SDS011;1855;50.934;6.958;2022-07-06T15:13:21;4.43;;;0.98;;
3677;SDS011;1855;50.934;6.958;2022-07-06T15:15:48;1.30;;;0.70;;
3677;SDS011;1855;50.934;6.958;2022-07-06T15:18:15;2.10;;;0.90;;
3677;SDS011;1855;50.934;6.958;2022-07-06T15:20:42;1.83;;;0.70;;
3677;SDS011;1855;50.934;6.958;2022-07-06T15:23:09;1.80;;;0.80;;
3677;SDS011;1855;50.934;6.958;2022-07-06T15:25:36;2.13;;;0.80;;